Finley, Washington
Current Conditions -  °F | °C
As of 8:53 PM on Friday 24 Oct 2014 (Local Time) from KPSC Reporting Station
Clear Clear  
Wind Chill:   Ceiling: Unl
Heat Index:   Visibility: 9mi
Dew Point:   Wind: 12mph
Humidity: 97%   Direction: 310°NW
Pressure: 29.92"   Gusts: NA
Location:  46.2117°N, 119.173°W
Report Text: KPSC 250353Z 31010KT 9SM CLR 09/09 A2992 RMK AO2 SLP132 T00940089
Loading
Personal Weather Stations






























Interactive Weather Map
Tropical Storm Tracking
New forecast layout! Learn more

10-Day Weather Forecast

Advertisements
Track Severe Weather on mobile